sensor_id;sensor_type;location;lat;lon;timestamp;P1;durP1;ratioP1;P2;durP2;ratioP2
62535;SDS011;63050;47.514;18.920;2023-02-26T00:01:13;3.60;;;2.30;;
62535;SDS011;63050;47.514;18.920;2023-02-26T00:06:15;2.70;;;2.10;;
62535;SDS011;63050;47.514;18.920;2023-02-26T00:11:16;3.20;;;2.30;;
62535;SDS011;63050;47.514;18.920;2023-02-26T00:16:31;4.00;;;2.70;;
62535;SDS011;63050;47.514;18.920;2023-02-26T00:21:33;3.40;;;2.50;;
62535;SDS011;63050;47.514;18.920;2023-02-26T00:26:35;5.60;;;2.20;;
62535;SDS011;63050;47.514;18.920;2023-02-26T00:31:36;3.90;;;2.60;;
62535;SDS011;63050;47.514;18.920;2023-02-26T00:36:43;3.70;;;2.50;;
62535;SDS011;63050;47.514;18.920;2023-02-26T00:41:45;3.10;;;2.00;;
62535;SDS011;63050;47.514;18.920;2023-02-26T00:51:57;3.80;;;2.30;;
62535;SDS011;63050;47.514;18.920;2023-02-26T00:56:58;4.80;;;2.60;;
62535;SDS011;63050;47.514;18.920;2023-02-26T01:01:59;3.80;;;2.40;;
62535;SDS011;63050;47.514;18.920;2023-02-26T01:07:00;3.00;;;2.00;;
62535;SDS011;63050;47.514;18.920;2023-02-26T01:12:06;2.80;;;2.00;;
62535;SDS011;63050;47.514;18.920;2023-02-26T01:22:51;2.90;;;2.10;;
62535;SDS011;63050;47.514;18.920;2023-02-26T01:28:00;5.40;;;2.10;;
62535;SDS011;63050;47.514;18.920;2023-02-26T01:33:21;3.20;;;2.20;;
62535;SDS011;63050;47.514;18.920;2023-02-26T01:43:38;4.90;;;2.80;;
62535;SDS011;63050;47.514;18.920;2023-02-26T01:48:56;3.30;;;2.40;;
62535;SDS011;63050;47.514;18.920;2023-02-26T01:53:58;4.00;;;2.60;;
62535;SDS011;63050;47.514;18.920;2023-02-26T01:58:59;4.00;;;2.30;;
62535;SDS011;63050;47.514;18.920;2023-02-26T02:04:06;3.50;;;2.80;;
62535;SDS011;63050;47.514;18.920;2023-02-26T02:09:09;4.00;;;3.00;;
62535;SDS011;63050;47.514;18.920;2023-02-26T02:14:17;4.30;;;3.00;;
62535;SDS011;63050;47.514;18.920;2023-02-26T02:35:04;3.50;;;3.00;;
62535;SDS011;63050;47.514;18.920;2023-02-26T02:40:11;4.50;;;3.10;;
62535;SDS011;63050;47.514;18.920;2023-02-26T02:45:19;4.50;;;3.30;;
62535;SDS011;63050;47.514;18.920;2023-02-26T02:50:28;4.80;;;3.50;;
62535;SDS011;63050;47.514;18.920;2023-02-26T02:55:39;4.80;;;2.90;;
62535;SDS011;63050;47.514;18.920;2023-02-26T03:00:50;4.10;;;2.80;;
62535;SDS011;63050;47.514;18.920;2023-02-26T03:05:54;4.60;;;3.00;;
62535;SDS011;63050;47.514;18.920;2023-02-26T03:10:55;5.10;;;3.90;;
62535;SDS011;63050;47.514;18.920;2023-02-26T03:21:15;3.50;;;3.00;;
62535;SDS011;63050;47.514;18.920;2023-02-26T03:31:36;5.00;;;3.30;;
62535;SDS011;63050;47.514;18.920;2023-02-26T03:47:34;3.70;;;3.10;;
62535;SDS011;63050;47.514;18.920;2023-02-26T03:52:37;4.50;;;2.70;;
62535;SDS011;63050;47.514;18.920;2023-02-26T03:58:10;3.40;;;2.90;;
62535;SDS011;63050;47.514;18.920;2023-02-26T04:03:52;4.20;;;3.10;;
62535;SDS011;63050;47.514;18.920;2023-02-26T04:08:57;5.60;;;3.70;;
62535;SDS011;63050;47.514;18.920;2023-02-26T04:14:00;6.40;;;3.30;;
62535;SDS011;63050;47.514;18.920;2023-02-26T04:19:06;4.70;;;3.60;;
62535;SDS011;63050;47.514;18.920;2023-02-26T04:24:07;4.70;;;3.20;;
62535;SDS011;63050;47.514;18.920;2023-02-26T04:29:09;5.40;;;3.70;;
62535;SDS011;63050;47.514;18.920;2023-02-26T04:34:10;6.30;;;3.90;;
62535;SDS011;63050;47.514;18.920;2023-02-26T04:39:12;5.60;;;3.20;;
62535;SDS011;63050;47.514;18.920;2023-02-26T04:44:14;4.90;;;3.40;;
62535;SDS011;63050;47.514;18.920;2023-02-26T04:49:16;2.90;;;2.10;;
62535;SDS011;63050;47.514;18.920;2023-02-26T04:54:18;4.20;;;2.90;;
62535;SDS011;63050;47.514;18.920;2023-02-26T04:59:19;3.30;;;2.40;;
62535;SDS011;63050;47.514;18.920;2023-02-26T05:04:20;4.90;;;3.00;;
62535;SDS011;63050;47.514;18.920;2023-02-26T05:09:24;5.00;;;3.10;;
62535;SDS011;63050;47.514;18.920;2023-02-26T05:14:25;4.30;;;3.10;;
62535;SDS011;63050;47.514;18.920;2023-02-26T05:19:25;5.90;;;3.10;;
62535;SDS011;63050;47.514;18.920;2023-02-26T05:24:26;3.70;;;2.80;;
62535;SDS011;63050;47.514;18.920;2023-02-26T05:29:28;3.80;;;3.00;;
62535;SDS011;63050;47.514;18.920;2023-02-26T05:34:30;4.50;;;3.00;;
62535;SDS011;63050;47.514;18.920;2023-02-26T05:39:31;5.70;;;3.50;;
62535;SDS011;63050;47.514;18.920;2023-02-26T05:44:32;5.60;;;3.20;;
62535;SDS011;63050;47.514;18.920;2023-02-26T05:49:34;5.10;;;3.50;;
62535;SDS011;63050;47.514;18.920;2023-02-26T05:54:35;5.00;;;3.10;;
62535;SDS011;63050;47.514;18.920;2023-02-26T05:59:36;4.80;;;3.10;;
62535;SDS011;63050;47.514;18.920;2023-02-26T06:04:38;5.20;;;3.90;;
62535;SDS011;63050;47.514;18.920;2023-02-26T06:09:39;4.60;;;3.60;;
62535;SDS011;63050;47.514;18.920;2023-02-26T06:14:40;4.70;;;4.10;;
62535;SDS011;63050;47.514;18.920;2023-02-26T06:19:41;4.80;;;3.60;;
62535;SDS011;63050;47.514;18.920;2023-02-26T06:24:42;5.10;;;3.90;;
62535;SDS011;63050;47.514;18.920;2023-02-26T06:29:43;7.30;;;3.70;;
62535;SDS011;63050;47.514;18.920;2023-02-26T06:34:44;4.40;;;3.70;;
62535;SDS011;63050;47.514;18.920;2023-02-26T06:39:45;5.70;;;3.70;;
62535;SDS011;63050;47.514;18.920;2023-02-26T06:44:46;3.80;;;3.40;;
62535;SDS011;63050;47.514;18.920;2023-02-26T06:49:47;7.00;;;4.50;;
62535;SDS011;63050;47.514;18.920;2023-02-26T06:54:48;7.30;;;4.50;;
62535;SDS011;63050;47.514;18.920;2023-02-26T06:59:49;6.80;;;4.50;;
62535;SDS011;63050;47.514;18.920;2023-02-26T07:04:51;8.50;;;4.30;;
62535;SDS011;63050;47.514;18.920;2023-02-26T07:09:52;5.60;;;3.50;;
62535;SDS011;63050;47.514;18.920;2023-02-26T07:14:53;6.10;;;4.00;;
62535;SDS011;63050;47.514;18.920;2023-02-26T07:19:54;7.30;;;5.00;;
62535;SDS011;63050;47.514;18.920;2023-02-26T07:24:55;6.20;;;4.80;;
62535;SDS011;63050;47.514;18.920;2023-02-26T07:29:56;5.10;;;4.50;;
62535;SDS011;63050;47.514;18.920;2023-02-26T07:34:57;4.80;;;3.70;;
62535;SDS011;63050;47.514;18.920;2023-02-26T07:39:58;4.50;;;3.00;;
62535;SDS011;63050;47.514;18.920;2023-02-26T07:44:59;4.40;;;3.50;;
62535;SDS011;63050;47.514;18.920;2023-02-26T07:49:59;5.10;;;4.00;;
62535;SDS011;63050;47.514;18.920;2023-02-26T07:55:00;4.80;;;3.70;;
62535;SDS011;63050;47.514;18.920;2023-02-26T08:00:01;4.70;;;3.50;;
62535;SDS011;63050;47.514;18.920;2023-02-26T08:05:12;4.50;;;3.30;;
62535;SDS011;63050;47.514;18.920;2023-02-26T08:10:13;3.10;;;2.80;;
62535;SDS011;63050;47.514;18.920;2023-02-26T08:15:14;3.20;;;2.60;;
62535;SDS011;63050;47.514;18.920;2023-02-26T08:20:15;3.50;;;2.90;;
62535;SDS011;63050;47.514;18.920;2023-02-26T08:25:16;4.50;;;3.00;;
62535;SDS011;63050;47.514;18.920;2023-02-26T08:30:17;5.00;;;3.10;;
62535;SDS011;63050;47.514;18.920;2023-02-26T08:35:18;2.90;;;2.60;;
62535;SDS011;63050;47.514;18.920;2023-02-26T08:40:19;5.30;;;3.60;;
62535;SDS011;63050;47.514;18.920;2023-02-26T08:45:20;5.00;;;3.30;;
62535;SDS011;63050;47.514;18.920;2023-02-26T08:50:21;4.30;;;2.70;;
62535;SDS011;63050;47.514;18.920;2023-02-26T08:55:22;3.50;;;2.60;;
62535;SDS011;63050;47.514;18.920;2023-02-26T09:00:23;3.80;;;2.50;;
62535;SDS011;63050;47.514;18.920;2023-02-26T09:05:24;4.70;;;3.20;;
62535;SDS011;63050;47.514;18.920;2023-02-26T09:10:25;3.40;;;2.90;;
62535;SDS011;63050;47.514;18.920;2023-02-26T09:15:27;3.50;;;2.50;;
62535;SDS011;63050;47.514;18.920;2023-02-26T09:20:30;5.10;;;3.20;;
62535;SDS011;63050;47.514;18.920;2023-02-26T09:25:31;3.20;;;2.50;;
62535;SDS011;63050;47.514;18.920;2023-02-26T09:30:32;4.50;;;2.90;;
62535;SDS011;63050;47.514;18.920;2023-02-26T09:35:33;4.10;;;3.20;;
62535;SDS011;63050;47.514;18.920;2023-02-26T09:45:55;4.20;;;3.20;;
62535;SDS011;63050;47.514;18.920;2023-02-26T09:50:57;4.00;;;3.20;;
62535;SDS011;63050;47.514;18.920;2023-02-26T09:56:18;3.90;;;3.00;;
62535;SDS011;63050;47.514;18.920;2023-02-26T10:01:44;3.80;;;2.80;;
62535;SDS011;63050;47.514;18.920;2023-02-26T10:12:12;4.60;;;2.70;;
62535;SDS011;63050;47.514;18.920;2023-02-26T10:17:33;4.20;;;3.40;;
62535;SDS011;63050;47.514;18.920;2023-02-26T10:38:24;3.60;;;2.50;;
62535;SDS011;63050;47.514;18.920;2023-02-26T10:48:45;3.20;;;2.60;;
62535;SDS011;63050;47.514;18.920;2023-02-26T10:53:57;2.50;;;2.00;;
62535;SDS011;63050;47.514;18.920;2023-02-26T10:59:00;3.10;;;1.80;;
62535;SDS011;63050;47.514;18.920;2023-02-26T11:04:02;2.50;;;1.80;;
62535;SDS011;63050;47.514;18.920;2023-02-26T11:09:19;3.20;;;2.20;;
62535;SDS011;63050;47.514;18.920;2023-02-26T11:14:25;3.50;;;2.10;;
62535;SDS011;63050;47.514;18.920;2023-02-26T11:19:30;3.60;;;2.00;;
62535;SDS011;63050;47.514;18.920;2023-02-26T11:24:37;2.90;;;2.20;;
62535;SDS011;63050;47.514;18.920;2023-02-26T11:29:41;2.70;;;2.10;;
62535;SDS011;63050;47.514;18.920;2023-02-26T11:34:47;3.30;;;2.30;;
62535;SDS011;63050;47.514;18.920;2023-02-26T11:39:55;4.80;;;2.50;;
62535;SDS011;63050;47.514;18.920;2023-02-26T11:44:58;3.90;;;2.50;;
62535;SDS011;63050;47.514;18.920;2023-02-26T11:50:00;3.30;;;2.90;;
62535;SDS011;63050;47.514;18.920;2023-02-26T11:55:17;4.90;;;3.60;;
62535;SDS011;63050;47.514;18.920;2023-02-26T12:00:38;4.00;;;2.80;;
62535;SDS011;63050;47.514;18.920;2023-02-26T12:05:39;3.80;;;2.80;;
62535;SDS011;63050;47.514;18.920;2023-02-26T12:10:57;3.50;;;2.70;;
62535;SDS011;63050;47.514;18.920;2023-02-26T12:16:12;5.30;;;3.50;;
62535;SDS011;63050;47.514;18.920;2023-02-26T12:59:24;5.20;;;4.00;;
62535;SDS011;63050;47.514;18.920;2023-02-26T13:10:14;4.20;;;3.50;;
62535;SDS011;63050;47.514;18.920;2023-02-26T13:20:56;5.10;;;3.50;;
62535;SDS011;63050;47.514;18.920;2023-02-26T13:26:01;5.00;;;3.40;;
62535;SDS011;63050;47.514;18.920;2023-02-26T13:31:10;4.60;;;3.30;;
62535;SDS011;63050;47.514;18.920;2023-02-26T13:36:14;4.90;;;3.70;;
62535;SDS011;63050;47.514;18.920;2023-02-26T13:51:41;5.80;;;3.80;;
62535;SDS011;63050;47.514;18.920;2023-02-26T13:56:51;4.90;;;3.90;;
62535;SDS011;63050;47.514;18.920;2023-02-26T14:12:49;5.80;;;4.00;;
62535;SDS011;63050;47.514;18.920;2023-02-26T14:18:18;6.10;;;3.80;;
62535;SDS011;63050;47.514;18.920;2023-02-26T14:23:40;4.30;;;3.40;;
62535;SDS011;63050;47.514;18.920;2023-02-26T14:29:36;4.20;;;3.00;;
62535;SDS011;63050;47.514;18.920;2023-02-26T14:34:15;6.00;;;3.90;;
62535;SDS011;63050;47.514;18.920;2023-02-26T14:39:36;4.60;;;3.30;;
62535;SDS011;63050;47.514;18.920;2023-02-26T14:44:51;5.90;;;4.20;;
62535;SDS011;63050;47.514;18.920;2023-02-26T14:49:58;5.10;;;3.50;;
62535;SDS011;63050;47.514;18.920;2023-02-26T14:55:02;5.20;;;3.50;;
62535;SDS011;63050;47.514;18.920;2023-02-26T15:26:39;4.80;;;3.40;;
62535;SDS011;63050;47.514;18.920;2023-02-26T15:31:52;4.90;;;3.70;;
62535;SDS011;63050;47.514;18.920;2023-02-26T15:36:56;4.30;;;3.30;;
62535;SDS011;63050;47.514;18.920;2023-02-26T15:41:58;4.40;;;3.20;;
62535;SDS011;63050;47.514;18.920;2023-02-26T15:47:01;4.70;;;3.10;;
62535;SDS011;63050;47.514;18.920;2023-02-26T15:52:04;5.10;;;3.70;;
62535;SDS011;63050;47.514;18.920;2023-02-26T15:57:08;5.20;;;3.90;;
62535;SDS011;63050;47.514;18.920;2023-02-26T16:02:14;5.40;;;3.80;;
62535;SDS011;63050;47.514;18.920;2023-02-26T16:07:19;5.40;;;3.70;;
62535;SDS011;63050;47.514;18.920;2023-02-26T16:12:28;6.50;;;3.70;;
62535;SDS011;63050;47.514;18.920;2023-02-26T16:17:39;4.50;;;3.10;;
62535;SDS011;63050;47.514;18.920;2023-02-26T16:22:48;5.20;;;3.40;;
62535;SDS011;63050;47.514;18.920;2023-02-26T16:28:01;5.80;;;3.40;;
62535;SDS011;63050;47.514;18.920;2023-02-26T16:33:33;4.90;;;3.10;;
62535;SDS011;63050;47.514;18.920;2023-02-26T16:38:45;4.70;;;3.20;;
62535;SDS011;63050;47.514;18.920;2023-02-26T16:43:52;5.50;;;3.50;;
62535;SDS011;63050;47.514;18.920;2023-02-26T16:49:01;5.50;;;4.00;;
62535;SDS011;63050;47.514;18.920;2023-02-26T16:54:07;6.00;;;4.40;;
62535;SDS011;63050;47.514;18.920;2023-02-26T16:59:21;5.30;;;3.80;;
62535;SDS011;63050;47.514;18.920;2023-02-26T17:04:25;5.80;;;4.10;;
62535;SDS011;63050;47.514;18.920;2023-02-26T17:09:36;7.10;;;4.70;;
62535;SDS011;63050;47.514;18.920;2023-02-26T17:14:40;6.20;;;3.50;;
62535;SDS011;63050;47.514;18.920;2023-02-26T17:19:45;4.90;;;3.50;;
62535;SDS011;63050;47.514;18.920;2023-02-26T17:24:46;9.00;;;3.90;;
62535;SDS011;63050;47.514;18.920;2023-02-26T17:29:49;5.80;;;4.00;;
62535;SDS011;63050;47.514;18.920;2023-02-26T17:34:53;6.80;;;4.10;;
62535;SDS011;63050;47.514;18.920;2023-02-26T17:39:54;6.30;;;4.20;;
62535;SDS011;63050;47.514;18.920;2023-02-26T17:44:57;6.40;;;4.40;;
62535;SDS011;63050;47.514;18.920;2023-02-26T17:50:01;6.20;;;4.00;;
62535;SDS011;63050;47.514;18.920;2023-02-26T17:55:02;5.40;;;4.10;;
62535;SDS011;63050;47.514;18.920;2023-02-26T18:00:04;7.80;;;4.90;;
62535;SDS011;63050;47.514;18.920;2023-02-26T18:05:16;6.70;;;4.60;;
62535;SDS011;63050;47.514;18.920;2023-02-26T18:10:21;6.70;;;4.60;;
62535;SDS011;63050;47.514;18.920;2023-02-26T18:15:24;9.90;;;4.70;;
62535;SDS011;63050;47.514;18.920;2023-02-26T18:20:26;8.30;;;5.10;;
62535;SDS011;63050;47.514;18.920;2023-02-26T18:25:29;7.50;;;5.30;;
62535;SDS011;63050;47.514;18.920;2023-02-26T18:30:32;8.10;;;5.50;;
62535;SDS011;63050;47.514;18.920;2023-02-26T18:35:35;7.40;;;4.90;;
62535;SDS011;63050;47.514;18.920;2023-02-26T18:40:39;8.60;;;6.30;;
62535;SDS011;63050;47.514;18.920;2023-02-26T18:45:41;6.50;;;5.10;;
62535;SDS011;63050;47.514;18.920;2023-02-26T18:50:44;8.10;;;4.40;;
62535;SDS011;63050;47.514;18.920;2023-02-26T18:55:50;7.00;;;5.10;;
62535;SDS011;63050;47.514;18.920;2023-02-26T19:00:52;6.10;;;4.10;;
62535;SDS011;63050;47.514;18.920;2023-02-26T19:05:58;7.30;;;4.20;;
62535;SDS011;63050;47.514;18.920;2023-02-26T19:11:00;8.00;;;5.50;;
62535;SDS011;63050;47.514;18.920;2023-02-26T19:16:04;6.10;;;5.00;;
62535;SDS011;63050;47.514;18.920;2023-02-26T19:21:07;8.10;;;4.60;;
62535;SDS011;63050;47.514;18.920;2023-02-26T19:26:10;8.70;;;6.20;;
62535;SDS011;63050;47.514;18.920;2023-02-26T19:31:12;9.30;;;5.30;;
62535;SDS011;63050;47.514;18.920;2023-02-26T19:36:13;7.70;;;5.30;;
62535;SDS011;63050;47.514;18.920;2023-02-26T19:41:17;7.80;;;5.10;;
62535;SDS011;63050;47.514;18.920;2023-02-26T19:46:23;7.70;;;4.40;;
62535;SDS011;63050;47.514;18.920;2023-02-26T19:51:24;6.10;;;4.30;;
62535;SDS011;63050;47.514;18.920;2023-02-26T19:56:26;6.90;;;4.40;;
62535;SDS011;63050;47.514;18.920;2023-02-26T20:01:27;6.10;;;4.20;;
62535;SDS011;63050;47.514;18.920;2023-02-26T20:06:29;6.80;;;4.00;;
62535;SDS011;63050;47.514;18.920;2023-02-26T20:11:31;8.00;;;4.40;;
62535;SDS011;63050;47.514;18.920;2023-02-26T20:16:33;5.90;;;4.20;;
62535;SDS011;63050;47.514;18.920;2023-02-26T20:21:35;5.80;;;4.30;;
62535;SDS011;63050;47.514;18.920;2023-02-26T20:26:37;7.50;;;4.40;;
62535;SDS011;63050;47.514;18.920;2023-02-26T20:31:40;7.30;;;4.90;;
62535;SDS011;63050;47.514;18.920;2023-02-26T20:36:45;8.50;;;5.10;;
62535;SDS011;63050;47.514;18.920;2023-02-26T20:41:50;7.90;;;4.40;;
62535;SDS011;63050;47.514;18.920;2023-02-26T20:46:51;8.80;;;5.00;;
62535;SDS011;63050;47.514;18.920;2023-02-26T20:51:54;5.60;;;3.80;;
62535;SDS011;63050;47.514;18.920;2023-02-26T20:56:55;5.70;;;3.20;;
62535;SDS011;63050;47.514;18.920;2023-02-26T21:01:58;5.50;;;3.30;;
62535;SDS011;63050;47.514;18.920;2023-02-26T21:07:00;6.60;;;3.30;;
62535;SDS011;63050;47.514;18.920;2023-02-26T21:12:13;5.00;;;3.50;;
62535;SDS011;63050;47.514;18.920;2023-02-26T21:17:19;5.10;;;3.60;;
62535;SDS011;63050;47.514;18.920;2023-02-26T21:22:21;7.60;;;4.10;;
62535;SDS011;63050;47.514;18.920;2023-02-26T21:27:24;7.10;;;3.40;;
62535;SDS011;63050;47.514;18.920;2023-02-26T21:32:25;5.10;;;3.40;;
62535;SDS011;63050;47.514;18.920;2023-02-26T21:37:26;7.70;;;3.60;;
62535;SDS011;63050;47.514;18.920;2023-02-26T21:42:28;5.00;;;3.20;;
62535;SDS011;63050;47.514;18.920;2023-02-26T21:47:29;5.20;;;3.80;;
62535;SDS011;63050;47.514;18.920;2023-02-26T21:52:31;5.40;;;3.10;;
62535;SDS011;63050;47.514;18.920;2023-02-26T21:57:33;5.00;;;3.20;;
62535;SDS011;63050;47.514;18.920;2023-02-26T22:02:33;5.80;;;3.10;;
62535;SDS011;63050;47.514;18.920;2023-02-26T22:07:34;4.40;;;3.20;;
62535;SDS011;63050;47.514;18.920;2023-02-26T22:12:35;5.20;;;3.10;;
62535;SDS011;63050;47.514;18.920;2023-02-26T22:17:36;4.40;;;2.80;;
62535;SDS011;63050;47.514;18.920;2023-02-26T22:22:37;4.80;;;2.90;;
62535;SDS011;63050;47.514;18.920;2023-02-26T22:27:38;5.80;;;3.20;;
62535;SDS011;63050;47.514;18.920;2023-02-26T22:32:39;4.10;;;3.20;;
62535;SDS011;63050;47.514;18.920;2023-02-26T22:37:40;5.50;;;2.80;;
62535;SDS011;63050;47.514;18.920;2023-02-26T22:42:41;5.40;;;2.90;;
62535;SDS011;63050;47.514;18.920;2023-02-26T22:47:43;3.60;;;2.50;;
62535;SDS011;63050;47.514;18.920;2023-02-26T22:52:46;3.90;;;2.30;;
62535;SDS011;63050;47.514;18.920;2023-02-26T22:57:47;4.70;;;2.60;;
62535;SDS011;63050;47.514;18.920;2023-02-26T23:02:48;4.00;;;2.30;;
62535;SDS011;63050;47.514;18.920;2023-02-26T23:07:49;4.60;;;2.70;;
62535;SDS011;63050;47.514;18.920;2023-02-26T23:12:50;4.50;;;2.60;;
62535;SDS011;63050;47.514;18.920;2023-02-26T23:17:51;4.10;;;2.80;;
62535;SDS011;63050;47.514;18.920;2023-02-26T23:22:52;3.80;;;2.50;;
62535;SDS011;63050;47.514;18.920;2023-02-26T23:27:52;4.40;;;2.50;;
62535;SDS011;63050;47.514;18.920;2023-02-26T23:32:53;2.90;;;2.30;;
62535;SDS011;63050;47.514;18.920;2023-02-26T23:37:56;4.90;;;2.60;;
62535;SDS011;63050;47.514;18.920;2023-02-26T23:42:57;3.50;;;2.20;;
62535;SDS011;63050;47.514;18.920;2023-02-26T23:47:58;4.20;;;2.30;;
62535;SDS011;63050;47.514;18.920;2023-02-26T23:52:59;4.80;;;2.80;;
62535;SDS011;63050;47.514;18.920;2023-02-26T23:58:00;4.90;;;2.20;;
